Latest Weather Observations for Oodnadatta

IDS60801

Issued at 11:01 am CST Saturday 29 April 2017 (issued every 30 minutes, with the page automatically refreshed every 10 minutes)

About weather observations | Map of weather stations | Latest weather observations for SA | Other Formats
Station Details ID: 017043 Name: OODNADATTA AIRPORT Lat: -27.56 Lon: 135.45 Height: 116.5 m
Data from the previous 72 hours. | See also: Recent months at Oodnadatta
Date/Time
CST
Temp
°C
App
Temp
°C
Dew
Point
°C
Rel
Hum
%
Delta-T
°C
Wind Press
QNH
hPa
Press
MSL
hPa
Rain since
9am
mm
Dir  Spd
km/h
Gust
km/h
Spd
kts
Gust
kts
29/11:00am 18.7 14.2 6.2 44 6.2 E 19 24 10 13 1025.4 1025.0 0.0
29/10:30am 18.1 13.1 6.3 46 5.8 E 22 28 12 15 1025.6 1025.2 0.0
29/10:00am 17.3 12.7 6.5 49 5.4 E 20 26 11 14 1026.0 1025.6 0.0
29/09:30am 16.3 12.7 6.7 53 4.7 E 15 19 8 10 1026.2 1025.8 0.0
29/09:00am 14.5 11.3 6.8 60 3.7 ESE 13 19 7 10 1025.8 1025.4 0.0
29/08:30am 12.8 10.7 6.8 67 2.9 SE 7 11 4 6 1025.6 1025.2 0.0
29/08:00am 11.4 9.2 6.3 71 2.4 SE 7 9 4 5 1025.5 1025.1 0.0
29/07:30am 10.5 7.1 6.1 74 2.0 SE 13 15 7 8 1025.1 1024.7 0.0
29/07:00am 10.4 7.3 5.6 72 2.2 SE 11 13 6 7 1024.9 1024.5 0.0
29/06:30am 10.4 7.7 5.6 72 2.2 SSE 9 9 5 5 1025.1 1024.7 0.0
29/06:00am 11.0 7.6 6.0 71 2.3 SE 13 13 7 7 1024.8 1024.4 0.0
29/05:30am 11.2 8.5 5.5 68 2.6 ESE 9 11 5 6 1024.4 1024.0 0.0
29/05:00am 11.5 8.4 5.4 66 2.8 ESE 11 15 6 8 1024.0 1023.6 0.0
29/04:30am 11.8 10.7 5.0 63 3.1 CALM 0 0 0 0 1024.3 1023.9 0.0
29/04:00am 12.0 9.7 5.0 62 3.2 ESE 6 7 3 4 1024.1 1023.7 0.0
29/03:30am 12.0 9.1 4.7 61 3.3 ESE 9 9 5 5 1024.1 1023.7 0.0
29/03:00am 12.5 9.7 5.0 60 3.5 ESE 9 11 5 6 1024.3 1023.9 0.0
29/02:30am 12.9 9.7 5.1 59 3.6 ESE 11 15 6 8 1024.3 1023.9 0.0
29/02:00am 12.3 8.6 4.3 58 3.6 ESE 13 13 7 7 1024.6 1024.2 0.0
29/01:30am 12.6 9.6 4.3 57 3.8 SE 9 9 5 5 1024.6 1024.2 0.0
29/01:00am 12.9 11.7 4.6 57 3.8 CALM 0 0 0 0 1024.7 1024.3 0.0
29/12:30am 13.5 11.5 4.4 54 4.2 E 4 6 2 3 1024.7 1024.3 0.0
29/12:00am 13.9 11.4 4.8 54 4.2 ENE 7 11 4 6 1025.1 1024.7 0.0
 
Date/Time
CST
Temp
°C
App
Temp
°C
Dew
Point
°C
Rel
Hum
%
Delta-T
°C
Wind Press
QNH
hPa
Press
MSL
hPa
Rain since
9am
mm
Dir  Spd
km/h
Gust
km/h
Spd
kts
Gust
kts
28/11:30pm 14.2 11.7 4.5 52 4.5 E 7 9 4 5 1025.1 1024.7 0.0
28/11:00pm 14.8 11.9 4.8 51 4.7 E 9 11 5 6 1025.2 1024.8 0.0
28/10:30pm 15.6 11.6 4.9 49 5.0 E 15 17 8 9 1025.0 1024.6 0.0
28/10:00pm 15.8 11.5 5.1 49 5.1 E 17 19 9 10 1025.2 1024.8 0.0
28/09:30pm 15.8 12.5 4.5 47 5.3 E 11 13 6 7 1025.5 1025.1 0.0
28/09:00pm 16.7 13.1 5.0 46 5.6 E 13 15 7 8 1025.3 1024.9 0.0
28/08:30pm 17.1 13.1 4.8 44 5.9 ESE 15 19 8 10 1025.4 1025.0 0.0
28/08:00pm 17.6 12.8 4.9 43 6.1 ESE 19 22 10 12 1025.3 1024.9 0.0
28/07:30pm 17.9 13.4 4.1 40 6.5 SE 17 20 9 11 1025.2 1024.8 0.0
28/07:00pm 18.0 14.2 3.9 39 6.7 SE 13 20 7 11 1025.0 1024.6 0.0
28/06:30pm 18.5 14.3 3.9 38 6.9 ESE 15 20 8 11 1024.8 1024.4 0.0
28/06:00pm 19.3 14.4 3.9 36 7.3 SE 19 26 10 14 1024.6 1024.2 0.0
28/05:30pm 19.7 15.1 3.8 35 7.6 SE 17 20 9 11 1024.6 1024.2 0.0
28/05:00pm 20.5 15.5 3.7 33 8.1 SE 19 24 10 13 1024.7 1024.3 0.0
28/04:30pm 20.4 16.2 3.6 33 8.0 SSE 15 22 8 12 1024.4 1024.0 0.0
28/04:00pm 20.7 16.1 3.9 33 8.1 SE 17 22 9 12 1024.5 1024.1 0.0
28/03:30pm 20.7 16.0 3.4 32 8.2 ESE 17 28 9 15 1024.4 1024.0 0.0
28/03:00pm 20.5 16.7 4.1 34 7.9 E 13 17 7 9 1024.5 1024.1 0.0
28/02:30pm 20.1 16.3 3.8 34 7.8 E 13 26 7 14 1024.7 1024.3 0.0
28/02:00pm 20.4 16.7 4.4 35 7.8 ESE 13 24 7 13 1024.9 1024.5 0.0
28/01:30pm 19.6 15.5 4.1 36 7.4 ESE 15 26 8 14 1025.5 1025.1 0.0
28/01:00pm 19.3 15.6 4.6 38 7.1 SE 13 20 7 11 1026.0 1025.6 0.0
28/12:30pm 19.6 15.2 4.9 38 7.1 E 17 32 9 17 1026.4 1026.1 0.0
28/12:00pm 18.5 13.6 4.3 39 6.8 ESE 19 28 10 15 1027.1 1026.8 0.0
28/11:30am 18.2 13.4 4.4 40 6.6 E 19 24 10 13 1027.4 1027.1 0.0
28/11:00am 17.9 12.6 5.2 43 6.2 E 22 32 12 17 1027.9 1027.6 0.0
28/10:30am 17.8 14.0 6.0 46 5.8 E 15 24 8 13 1028.5 1028.1 0.0
28/10:00am 16.3 12.7 6.7 53 4.7 ESE 15 20 8 11 1028.7 1028.3 0.0
28/09:30am 15.4 11.8 6.9 57 4.2 E 15 20 8 11 1028.9 1028.5 0.0
28/09:00am 14.3 10.3 6.6 60 3.7 ESE 17 20 9 11 1028.7 1028.3 0.0
28/08:30am 12.7 9.6 5.4 61 3.4 SE 11 13 6 7 1028.4 1028.0 0.0
28/08:00am 10.1 7.4 3.6 64 2.9 ESE 7 11 4 6 1027.9 1027.6 0.0
28/07:30am 7.8 4.6 2.9 71 2.1 S 9 11 5 6 1027.7 1027.4 0.0
28/07:00am 6.7 3.0 2.2 73 1.9 S 11 13 6 7 1027.6 1027.3 0.0
28/06:30am 6.7 2.5 1.6 70 2.1 S 13 15 7 8 1027.5 1027.2 0.0
28/06:00am 7.6 4.7 2.5 70 2.1 S 7 9 4 5 1027.3 1027.0 0.0
28/05:30am 8.0 5.1 2.5 68 2.3 S 7 9 4 5 1027.2 1026.9 0.0
28/05:00am 8.3 5.5 3.0 69 2.3 S 7 9 4 5 1026.9 1026.6 0.0
28/04:30am 7.7 6.1 2.2 68 2.3 CALM 0 2 0 1 1026.9 1026.6 0.0
28/04:00am 8.1 4.8 2.4 67 2.4 S 9 9 5 5 1026.9 1026.6 0.0
28/03:30am 8.3 4.6 2.3 66 2.5 SSW 11 13 6 7 1026.7 1026.4 0.0
28/03:00am 8.8 4.7 2.4 64 2.7 SSE 13 15 7 8 1026.9 1026.6 0.0
28/02:30am 9.3 6.0 2.4 62 2.9 SE 9 9 5 5 1027.1 1026.8 0.0
28/02:00am 9.5 6.8 2.6 62 3.0 SE 6 7 3 4 1027.0 1026.7 0.0
28/01:30am 9.6 6.8 2.2 60 3.1 SE 6 9 3 5 1027.0 1026.7 0.0
28/01:00am 9.9 6.2 2.5 60 3.2 SE 11 13 6 7 1026.9 1026.6 0.0
28/12:30am 10.1 6.0 2.5 59 3.2 SE 13 15 7 8 1027.0 1026.7 0.0
28/12:00am 10.8 6.3 2.4 56 3.6 SE 15 15 8 8 1027.3 1027.0 0.0
 
Date/Time
CST
Temp
°C
App
Temp
°C
Dew
Point
°C
Rel
Hum
%
Delta-T
°C
Wind Press
QNH
hPa
Press
MSL
hPa
Rain since
9am
mm
Dir  Spd
km/h
Gust
km/h
Spd
kts
Gust
kts
27/11:30pm 11.3 7.3 2.6 55 3.8 SE 13 17 7 9 1027.4 1027.1 0.0
27/11:00pm 11.8 8.5 2.5 53 4.1 SE 9 11 5 6 1027.7 1027.4 0.0
27/10:30pm 12.5 9.2 2.7 51 4.3 ESE 9 11 5 6 1027.8 1027.5 0.0
27/10:00pm 13.5 9.5 2.7 48 4.8 ESE 13 15 7 8 1027.6 1027.3 0.0
27/09:30pm 14.3 9.9 2.5 45 5.2 SE 15 17 8 9 1027.4 1027.1 0.0
27/09:00pm 14.8 10.3 2.4 43 5.5 ESE 15 17 8 9 1027.2 1026.9 0.0
27/08:30pm 15.1 10.6 2.3 42 5.7 ESE 15 19 8 10 1026.9 1026.6 0.0
27/08:00pm 15.9 11.1 2.7 41 6.0 SE 17 19 9 10 1026.5 1026.2 0.0
27/07:30pm 16.2 11.7 2.2 39 6.3 ESE 15 17 8 9 1026.2 1025.8 0.0
27/07:00pm 17.0 12.1 2.2 37 6.7 ESE 17 20 9 11 1025.9 1025.5 0.0
27/06:30pm 17.7 12.8 2.1 35 7.1 ESE 17 22 9 12 1025.8 1025.4 0.0
27/06:00pm 18.4 12.6 2.3 34 7.4 SE 22 28 12 15 1025.4 1025.0 0.0
27/05:30pm 19.3 13.5 2.2 32 7.8 SE 22 28 12 15 1025.2 1024.8 0.0
27/05:00pm 19.8 13.6 2.2 31 8.2 SE 24 35 13 19 1025.1 1024.7 0.0
27/04:30pm 20.1 14.2 2.0 30 8.3 SE 22 32 12 17 1024.9 1024.5 0.0
27/04:00pm 19.9 13.3 1.8 30 8.3 SE 26 35 14 19 1024.8 1024.4 0.0
27/03:30pm 20.5 14.3 1.9 29 8.6 SE 24 35 13 19 1024.9 1024.5 0.0
27/03:00pm 20.7 14.0 1.6 28 8.8 SE 26 37 14 20 1024.9 1024.5 0.0
27/02:45pm 20.3 13.3 1.7 29 8.6 SSE 28 46 15 25 1024.9 1024.5 0.0
27/02:30pm 20.0 14.5 1.9 30 8.3 SE 20 28 11 15 1025.2 1024.8 0.0
27/02:00pm 20.3 14.2 2.6 31 8.3 SSE 24 32 13 17 1025.6 1025.2 0.0
27/01:30pm 20.3 14.3 3.5 33 8.0 SE 24 39 13 21 1025.8 1025.4 0.0
27/01:00pm 19.0 13.3 2.8 34 7.6 SSE 22 41 12 22 1026.2 1025.8 0.0
27/12:30pm 18.8 12.4 3.4 36 7.2 SSE 26 37 14 20 1026.7 1026.4 0.0
27/12:00pm 18.6 12.6 3.6 37 7.0 SE 24 37 13 20 1027.1 1026.8 0.0
27/11:30am 17.6 11.8 4.2 41 6.3 SSE 24 35 13 19 1027.6 1027.3 0.0
27/11:00am 17.0 11.2 4.3 43 6.0 SE 24 35 13 19 1027.9 1027.6 0.0
27/10:30am 16.4 10.8 5.4 48 5.3 SE 24 35 13 19 1028.4 1028.0 0.0
27/10:00am 15.3 9.3 5.5 52 4.7 SE 26 32 14 17 1028.7 1028.3 0.0
27/09:30am 14.4 8.4 5.5 55 4.2 SE 26 33 14 18 1028.7 1028.3 0.0
27/09:00am 13.2 8.1 5.9 61 3.4 SE 22 30 12 16 1028.5 1028.1 0.0
27/08:30am 11.7 6.6 5.8 67 2.7 SSE 22 30 12 16 1028.1 1027.8 0.0
27/08:00am 10.6 7.2 6.0 73 2.1 S 13 19 7 10 1028.0 1027.7 0.0
27/07:30am 8.6 5.7 4.8 77 1.7 S 9 11 5 6 1027.7 1027.4 0.0
27/07:00am 7.5 3.8 4.3 80 1.4 S 13 15 7 8 1027.1 1026.8 0.0
27/06:30am 7.7 4.0 4.3 79 1.5 S 13 13 7 7 1026.7 1026.4 0.0
27/06:00am 7.9 4.6 4.3 78 1.6 S 11 13 6 7 1026.6 1026.3 0.0
27/05:30am 8.2 4.5 4.2 76 1.7 S 13 13 7 7 1026.4 1026.1 0.0
27/05:00am 8.5 4.8 4.3 75 1.9 S 13 15 7 8 1026.4 1026.1 0.0
27/04:30am 8.6 4.9 4.4 75 1.8 S 13 15 7 8 1026.3 1025.9 0.0
27/04:00am 8.6 4.9 4.2 74 1.9 SSW 13 13 7 7 1026.0 1025.6 0.0
27/03:30am 9.6 6.7 4.6 71 2.2 SSW 9 9 5 5 1026.0 1025.6 0.0
27/03:00am 9.4 8.2 4.6 72 2.1 CALM 0 4 0 2 1026.0 1025.6 0.0
27/02:30am 9.9 8.8 4.9 71 2.2 CALM 0 0 0 0 1026.0 1025.6 0.0
27/02:00am 10.0 7.1 4.6 69 2.4 SSE 9 11 5 6 1026.0 1025.6 0.0
27/01:30am 10.4 7.1 4.8 68 2.5 SE 11 13 6 7 1025.8 1025.4 0.0
27/01:00am 11.0 7.4 4.9 66 2.8 SE 13 13 7 7 1026.0 1025.6 0.0
27/12:30am 11.8 8.6 5.2 64 3.0 SE 11 13 6 7 1026.0 1025.6 0.0
27/12:00am 11.8 8.2 5.2 64 3.0 SE 13 13 7 7 1026.2 1025.8 0.0
 
Date/Time
CST
Temp
°C
App
Temp
°C
Dew
Point
°C
Rel
Hum
%
Delta-T
°C
Wind Press
QNH
hPa
Press
MSL
hPa
Rain since
9am
mm
Dir  Spd
km/h
Gust
km/h
Spd
kts
Gust
kts
26/11:30pm 12.4 8.8 5.1 61 3.4 SE 13 15 7 8 1026.1 1025.7 0.0
26/11:00pm 13.8 10.4 5.7 58 3.9 SSE 13 17 7 9 1026.1 1025.7 0.0
26/10:30pm 14.6 10.4 5.7 55 4.2 SSE 17 20 9 11 1025.7 1025.3 0.0
26/10:00pm 15.1 10.6 5.9 54 4.4 SSE 19 22 10 12 1025.5 1025.1 0.0
26/09:30pm 15.6 11.0 5.8 52 4.7 SSE 19 24 10 13 1025.2 1024.8 0.0
26/09:00pm 16.2 11.4 5.8 50 5.0 S 20 26 11 14 1024.8 1024.4 0.0
26/08:30pm 16.6 11.8 5.6 48 5.3 S 20 24 11 13 1024.5 1024.1 0.0
26/08:00pm 17.3 12.1 5.6 46 5.7 SSE 22 26 12 14 1024.1 1023.7 0.0
26/07:30pm 17.7 12.4 5.0 43 6.1 SSE 22 28 12 15 1023.6 1023.2 0.0
26/07:00pm 18.1 11.9 4.3 40 6.6 SSE 26 32 14 17 1023.2 1022.8 0.0
26/06:30pm 18.6 12.4 4.4 39 6.8 S 26 33 14 18 1022.7 1022.3 0.0
26/06:00pm 18.9 11.4 4.3 38 7.0 S 33 41 18 22 1022.0 1021.6 0.0
26/05:30pm 19.7 12.5 5.0 38 7.2 S 32 41 17 22 1021.8 1021.4 0.0
26/05:00pm 20.2 12.0 4.7 36 7.6 S 37 46 20 25 1021.7 1021.3 0.0
26/04:30pm 20.7 12.8 4.3 34 7.9 S 35 48 19 26 1021.4 1021.0 0.0
26/04:00pm 21.0 12.8 4.6 34 8.0 S 37 50 20 27 1021.4 1021.0 0.0
26/03:30pm 21.4 13.2 4.5 33 8.3 S 37 52 20 28 1021.6 1021.2 0.0
26/03:00pm 21.3 13.9 5.2 35 8.0 S 33 54 18 29 1021.6 1021.2 0.0
26/02:56pm 21.0 13.2 5.0 35 7.9 S 35 54 19 29 1021.6 1021.2 0.0
26/02:30pm 21.5 13.7 5.0 34 8.1 S 35 48 19 26 1021.7 1021.3 0.0
26/02:00pm 21.1 13.8 5.5 36 7.8 S 33 46 18 25 1021.9 1021.5 0.0
26/01:41pm 21.7 14.3 6.8 38 7.6 SSW 35 54 19 29 1021.7 1021.3 0.0
26/01:30pm 21.5 13.8 7.0 39 7.4 S 37 52 20 28 1021.7 1021.3 0.0
26/01:08pm 22.0 14.9 8.2 41 7.3 S 35 59 19 32 1021.9 1021.5 0.0
26/01:00pm 20.8 13.7 8.1 44 6.6 S 35 46 19 25 1022.3 1021.9 0.0
26/12:30pm 20.2 13.6 8.5 47 6.1 S 33 48 18 26 1022.7 1022.3 0.0
26/12:02pm 20.2 13.9 8.8 48 6.0 S 32 50 17 27 1023.0 1022.6 0.0
26/12:00pm 20.1 14.2 9.1 49 5.8 SSW 30 46 16 25 1023.3 1022.9 0.0
26/11:30am 19.3 12.5 9.2 52 5.3 S 35 46 19 25 1023.6 1023.2 0.0

Other Formats:

Comma delimited format used in spreadsheet applications
http://www.bom.gov.au/fwo/IDS60801/IDS60801.94476.axf

JavaScript Object Notation format (JSON) in row-major order
http://www.bom.gov.au/fwo/IDS60801/IDS60801.94476.json